Time;durP1;ratioP1;P1;durP2;ratioP2;P2;SDS_P1;SDS_P2;PMS_P1;PMS_P2;Temp;Humidity;BMP_temperature;BMP_pressure;BME280_temperature;BME280_humidity;BME280_pressure;Samples;Min_cycle;Max_cycle;Signal;HPM_P1;HPM_P2
2021/09/11 00:01:57;;;;;;;;;;;23.50;58.10;;;;;;4990763;28;20003;-65
2021/09/11 00:04:25;;;;;;;;;;;23.50;58.10;;;;;;4991609;28;19926;-65
2021/09/11 00:06:52;;;;;;;;;;;23.50;58.10;;;;;;4990630;28;19995;-65
2021/09/11 00:09:19;;;;;;;;;;;23.50;58.10;;;;;;4991513;28;20030;-65
2021/09/11 00:11:46;;;;;;;;;;;23.50;58.10;;;;;;4990781;28;19926;-66
2021/09/11 00:14:13;;;;;;;;;;;23.50;58.10;;;;;;4991322;28;20412;-66
2021/09/11 00:16:40;;;;;;;;;;;23.50;58.10;;;;;;4991068;28;19926;-67
2021/09/11 00:19:07;;;;;;;;;;;23.50;58.10;;;;;;4990335;28;19937;-65
2021/09/11 00:21:35;;;;;;;;;;;23.50;58.70;;;;;;4991306;28;20385;-65
2021/09/11 00:24:02;;;;;;;;;;;23.50;58.10;;;;;;4991166;28;19926;-65
2021/09/11 00:26:29;;;;;;;;;;;23.50;58.10;;;;;;4989933;28;19926;-65
2021/09/11 00:28:56;;;;;;;;;;;23.50;58.10;;;;;;4990127;28;19926;-68
2021/09/11 00:31:23;;;;;;;;;;;23.50;58.10;;;;;;4973405;28;19934;-65
2021/09/11 00:33:50;;;;;;;;;;;23.50;58.10;;;;;;4991339;28;19932;-65
2021/09/11 00:36:17;;;;;;;;;;;23.50;58.10;;;;;;4991067;28;19932;-66
2021/09/11 00:38:44;;;;;;;;;;;23.50;58.10;;;;;;4989978;28;19926;-65
2021/09/11 00:41:11;;;;;;;;;;;23.50;58.10;;;;;;4991504;28;19926;-65
2021/09/11 00:43:43;;;;;;;;;;;23.50;58.10;;;;;;4989926;28;19933;-65
2021/09/11 00:46:10;;;;;;;;;;;23.50;58.10;;;;;;4990155;28;19933;-66
2021/09/11 00:48:37;;;;;;;;;;;23.50;58.10;;;;;;4991206;28;20373;-65
2021/09/11 00:51:05;;;;;;;;;;;23.50;58.10;;;;;;4991229;28;19926;-65
2021/09/11 00:53:32;;;;;;;;;;;23.50;58.10;;;;;;4997469;28;19930;-65
2021/09/11 00:55:59;;;;;;;;;;;23.50;58.10;;;;;;4990521;28;19926;-66
2021/09/11 00:58:27;;;;;;;;;;;23.50;58.10;;;;;;4990698;28;19926;-66
2021/09/11 01:00:55;;;;;;;;;;;23.50;58.10;;;;;;4990680;28;20386;-65
2021/09/11 01:03:22;;;;;;;;;;;23.50;58.10;;;;;;4990817;28;19933;-65
2021/09/11 01:05:50;;;;;;;;;;;23.50;58.10;;;;;;4990770;28;19925;-66
2021/09/11 01:08:18;;;;;;;;;;;23.50;58.10;;;;;;4990730;28;19930;-65
2021/09/11 01:10:45;;;;;;;;;;;23.50;58.10;;;;;;4990855;28;19926;-65
2021/09/11 01:13:12;;;;;;;;;;;23.50;58.10;;;;;;4990915;28;19926;-66
2021/09/11 01:15:40;;;;;;;;;;;23.50;58.10;;;;;;4990447;28;19925;-65
2021/09/11 01:18:08;;;;;;;;;;;23.50;58.10;;;;;;4989278;28;19930;-66
2021/09/11 01:20:36;;;;;;;;;;;23.50;58.10;;;;;;4990785;28;20301;-65
2021/09/11 01:23:03;;;;;;;;;;;23.50;58.10;;;;;;4989726;28;19926;-66
2021/09/11 01:25:30;;;;;;;;;;;23.50;58.10;;;;;;4989471;28;19934;-65
2021/09/11 01:27:57;;;;;;;;;;;23.50;58.10;;;;;;4989533;28;19945;-67
2021/09/11 01:30:25;;;;;;;;;;;23.40;58.10;;;;;;4990465;28;19934;-65
2021/09/11 01:32:52;;;;;;;;;;;23.40;58.10;;;;;;4990409;28;20373;-65
2021/09/11 01:35:19;;;;;;;;;;;23.40;58.10;;;;;;4990652;28;19933;-65
2021/09/11 01:37:46;;;;;;;;;;;23.40;58.10;;;;;;4989276;28;19932;-66
2021/09/11 01:40:14;;;;;;;;;;;23.40;58.10;;;;;;4989589;28;19933;-66
2021/09/11 01:42:41;;;;;;;;;;;23.40;58.10;;;;;;4990276;28;20305;-65
2021/09/11 01:45:10;;;;;;;;;;;23.40;58.10;;;;;;4990187;28;19976;-65
2021/09/11 01:47:38;;;;;;;;;;;23.40;58.10;;;;;;4989175;28;19930;-65
2021/09/11 01:50:06;;;;;;;;;;;23.40;58.10;;;;;;4990341;28;19948;-66
2021/09/11 01:52:33;;;;;;;;;;;23.40;58.10;;;;;;5039131;28;19963;-65
2021/09/11 01:55:04;;;;;;;;;;;23.40;58.00;;;;;;5013135;28;19980;-65
2021/09/11 01:57:31;;;;;;;;;;;23.50;58.10;;;;;;4989882;28;19933;-65
2021/09/11 01:59:58;;;;;;;;;;;23.40;58.00;;;;;;4989190;28;19930;-66
2021/09/11 02:02:25;;;;;;;;;;;23.50;58.10;;;;;;4989116;28;19991;-65
2021/09/11 02:04:52;;;;;;;;;;;23.50;58.10;;;;;;4989189;28;20345;-65
2021/09/11 02:07:19;;;;;;;;;;;23.50;58.10;;;;;;4992510;28;20032;-65
2021/09/11 02:09:46;;;;;;;;;;;23.50;58.10;;;;;;4976414;28;19933;-66
2021/09/11 02:12:13;;;;;;;;;;;23.50;58.70;;;;;;4993651;28;20028;-65
2021/09/11 02:14:40;;;;;;;;;;;23.50;58.10;;;;;;4993234;28;19995;-65
2021/09/11 02:17:08;;;;;;;;;;;23.40;58.00;;;;;;4992979;28;19926;-65
2021/09/11 02:19:35;;;;;;;;;;;23.50;58.10;;;;;;4978969;28;19949;-65
2021/09/11 02:22:03;;;;;;;;;;;23.40;58.00;;;;;;4992184;28;19926;-66
2021/09/11 02:24:31;;;;;;;;;;;23.40;58.00;;;;;;4992012;28;20380;-66
2021/09/11 02:27:02;;;;;;;;;;;23.40;58.00;;;;;;4991814;28;19933;-65
2021/09/11 02:29:29;;;;;;;;;;;23.40;58.00;;;;;;4993003;28;19926;-65
2021/09/11 02:31:57;;;;;;;;;;;23.40;58.00;;;;;;4992309;28;20378;-65
2021/09/11 02:34:24;;;;;;;;;;;23.40;58.00;;;;;;4993486;28;20017;-65
2021/09/11 02:36:52;;;;;;;;;;;23.40;58.00;;;;;;4992412;28;20282;-66
2021/09/11 02:39:22;;;;;;;;;;;23.40;58.00;;;;;;4993009;28;19926;-66
2021/09/11 02:41:49;;;;;;;;;;;23.40;58.10;;;;;;4992136;28;19926;-65
2021/09/11 02:44:16;;;;;;;;;;;23.40;58.10;;;;;;4991771;28;20385;-67
2021/09/11 02:46:43;;;;;;;;;;;23.40;58.00;;;;;;4993205;28;19926;-65
2021/09/11 02:49:10;;;;;;;;;;;23.40;58.00;;;;;;4978937;28;19926;-66
2021/09/11 02:51:37;;;;;;;;;;;23.40;58.00;;;;;;5002840;28;19926;-66
2021/09/11 02:54:04;;;;;;;;;;;23.40;58.00;;;;;;5016213;28;19925;-65
2021/09/11 02:56:31;;;;;;;;;;;23.40;58.00;;;;;;4992536;28;19940;-65
2021/09/11 02:58:59;;;;;;;;;;;23.40;58.00;;;;;;4993020;28;19926;-65
2021/09/11 03:01:26;;;;;;;;;;;23.40;58.30;;;;;;4991401;28;19926;-66
2021/09/11 03:03:54;;;;;;;;;;;23.40;58.00;;;;;;4992832;28;20319;-65
2021/09/11 03:06:21;;;;;;;;;;;23.40;58.00;;;;;;4991565;28;20372;-65
2021/09/11 03:08:48;;;;;;;;;;;23.40;58.10;;;;;;4991206;28;20416;-66
2021/09/11 03:11:15;;;;;;;;;;;23.40;58.10;;;;;;4992641;28;19932;-65
2021/09/11 03:13:42;;;;;;;;;;;23.40;58.10;;;;;;4991256;28;20009;-66
2021/09/11 03:16:10;;;;;;;;;;;23.40;58.00;;;;;;4991165;28;19926;-65
2021/09/11 03:18:37;;;;;;;;;;;23.40;58.10;;;;;;4991130;28;19933;-65
2021/09/11 03:21:04;;;;;;;;;;;23.40;58.10;;;;;;4991224;28;19926;-66
2021/09/11 03:23:31;;;;;;;;;;;23.40;58.10;;;;;;4992332;28;19933;-65
2021/09/11 03:25:59;;;;;;;;;;;23.40;58.10;;;;;;4991319;28;19926;-66
2021/09/11 03:28:26;;;;;;;;;;;23.40;58.10;;;;;;4992092;28;19926;-65
2021/09/11 03:30:53;;;;;;;;;;;23.40;58.00;;;;;;4991294;28;19932;-65
2021/09/11 03:33:20;;;;;;;;;;;23.40;58.00;;;;;;4992409;28;19926;-66
2021/09/11 03:35:48;;;;;;;;;;;23.40;58.00;;;;;;4991170;28;20385;-65
2021/09/11 03:38:15;;;;;;;;;;;23.40;58.00;;;;;;4990858;28;19926;-67
2021/09/11 03:40:42;;;;;;;;;;;23.40;58.10;;;;;;4990849;28;20408;-65
2021/09/11 03:43:09;;;;;;;;;;;23.40;58.10;;;;;;4992135;28;19930;-65
2021/09/11 03:45:36;;;;;;;;;;;23.40;58.10;;;;;;4991726;28;19933;-66
2021/09/11 03:48:04;;;;;;;;;;;23.40;58.00;;;;;;4990963;28;20037;-65
2021/09/11 03:50:31;;;;;;;;;;;23.40;58.00;;;;;;4992122;28;20016;-65
2021/09/11 03:52:58;;;;;;;;;;;23.40;58.00;;;;;;4992391;28;19933;-65
2021/09/11 03:55:25;;;;;;;;;;;23.40;58.00;;;;;;4990727;28;19958;-65
2021/09/11 03:57:52;;;;;;;;;;;23.40;58.10;;;;;;4990874;28;19926;-66
2021/09/11 04:00:19;;;;;;;;;;;23.40;58.00;;;;;;4990887;28;19930;-67
2021/09/11 04:02:46;;;;;;;;;;;23.40;58.10;;;;;;4990876;28;19926;-65
2021/09/11 04:05:15;;;;;;;;;;;23.40;58.10;;;;;;4974560;28;19933;-65
2021/09/11 04:07:42;;;;;;;;;;;23.40;58.10;;;;;;4990724;28;20300;-65
2021/09/11 04:10:09;;;;;;;;;;;23.40;58.00;;;;;;4990541;28;19936;-65
2021/09/11 04:12:36;;;;;;;;;;;23.40;58.00;;;;;;4992023;28;20282;-65
2021/09/11 04:15:03;;;;;;;;;;;23.40;58.00;;;;;;4973214;28;19933;-65
2021/09/11 04:17:30;;;;;;;;;;;23.40;58.00;;;;;;4990981;28;19940;-65
2021/09/11 04:19:57;;;;;;;;;;;23.40;58.00;;;;;;4990616;28;19926;-65
2021/09/11 04:22:24;;;;;;;;;;;23.40;58.10;;;;;;4991643;28;19925;-65
2021/09/11 04:24:52;;;;;;;;;;;23.40;58.10;;;;;;4990628;28;19933;-65
2021/09/11 04:27:19;;;;;;;;;;;23.40;58.00;;;;;;4991092;28;19933;-65
2021/09/11 04:29:46;;;;;;;;;;;23.40;58.00;;;;;;4988718;28;19932;-66
2021/09/11 04:32:13;;;;;;;;;;;23.40;58.00;;;;;;4991234;28;19925;-65
2021/09/11 04:34:40;;;;;;;;;;;23.40;58.00;;;;;;4991543;28;19933;-66
2021/09/11 04:37:08;;;;;;;;;;;23.40;58.60;;;;;;4990030;28;19925;-65
2021/09/11 04:39:35;;;;;;;;;;;23.40;58.00;;;;;;4989899;28;19972;-65
2021/09/11 04:42:02;;;;;;;;;;;23.30;57.90;;;;;;4991060;28;19926;-65
2021/09/11 04:44:29;;;;;;;;;;;23.30;57.90;;;;;;4991308;28;20297;-65
2021/09/11 04:46:56;;;;;;;;;;;23.40;58.00;;;;;;4990874;28;19926;-64
2021/09/11 04:49:23;;;;;;;;;;;23.40;58.00;;;;;;4990867;28;19926;-65
2021/09/11 04:51:50;;;;;;;;;;;23.40;58.00;;;;;;5008608;28;20010;-65
2021/09/11 04:54:18;;;;;;;;;;;23.40;57.90;;;;;;5031977;28;19933;-65
2021/09/11 04:56:45;;;;;;;;;;;23.40;58.00;;;;;;4990614;28;19932;-65
2021/09/11 04:59:12;;;;;;;;;;;23.40;57.90;;;;;;4990320;28;19946;-65
2021/09/11 05:01:39;;;;;;;;;;;23.40;58.00;;;;;;4991198;28;19933;-65
2021/09/11 05:04:07;;;;;;;;;;;23.40;57.90;;;;;;4991346;28;19955;-65
2021/09/11 05:06:34;;;;;;;;;;;23.40;57.90;;;;;;4990237;28;19926;-66
2021/09/11 05:09:01;;;;;;;;;;;23.40;57.90;;;;;;4990445;28;20452;-67
2021/09/11 05:11:28;;;;;;;;;;;23.40;57.90;;;;;;4989910;28;19927;-65
2021/09/11 05:13:55;;;;;;;;;;;23.40;57.90;;;;;;4989887;28;19933;-65
2021/09/11 05:16:23;;;;;;;;;;;23.40;57.90;;;;;;4990327;28;19965;-65
2021/09/11 05:18:50;;;;;;;;;;;23.40;57.90;;;;;;4974083;28;19930;-65
2021/09/11 05:21:17;;;;;;;;;;;23.40;57.80;;;;;;4990497;28;19926;-66
2021/09/11 05:23:44;;;;;;;;;;;23.40;57.70;;;;;;4990829;28;20292;-65
2021/09/11 05:26:11;;;;;;;;;;;23.40;57.70;;;;;;4989818;28;19932;-65
2021/09/11 05:28:38;;;;;;;;;;;23.40;57.70;;;;;;4990786;28;20316;-65
2021/09/11 05:31:05;;;;;;;;;;;23.50;57.80;;;;;;4989227;28;20381;-66
2021/09/11 05:33:32;;;;;;;;;;;23.50;57.70;;;;;;4989333;28;19965;-65
2021/09/11 05:35:59;;;;;;;;;;;23.50;57.70;;;;;;4972039;28;19926;-65
2021/09/11 05:38:26;;;;;;;;;;;23.50;57.70;;;;;;4989931;28;19926;-65
2021/09/11 05:40:54;;;;;;;;;;;23.50;57.60;;;;;;4991045;28;19933;-65
2021/09/11 05:43:21;;;;;;;;;;;23.50;57.60;;;;;;4992625;28;19976;-65
2021/09/11 05:45:48;;;;;;;;;;;23.50;57.50;;;;;;4993546;28;19933;-65
2021/09/11 05:48:15;;;;;;;;;;;23.50;57.50;;;;;;4993823;28;19926;-66
2021/09/11 05:50:43;;;;;;;;;;;23.50;57.50;;;;;;4992574;28;19932;-66
2021/09/11 05:53:10;;;;;;;;;;;23.60;57.50;;;;;;5013454;28;19929;-65
2021/09/11 05:55:37;;;;;;;;;;;23.60;57.50;;;;;;4992613;28;19926;-65
2021/09/11 05:58:04;;;;;;;;;;;23.60;57.50;;;;;;4993530;28;19926;-65
2021/09/11 06:00:31;;;;;;;;;;;23.60;57.40;;;;;;4993355;28;19973;-65
2021/09/11 06:02:58;;;;;;;;;;;23.60;57.40;;;;;;4975646;28;19926;-67
2021/09/11 06:05:26;;;;;;;;;;;23.60;57.40;;;;;;4992335;28;19926;-65
2021/09/11 06:07:53;;;;;;;;;;;23.60;57.40;;;;;;4993404;28;20381;-65
2021/09/11 06:10:20;;;;;;;;;;;23.60;57.30;;;;;;4992558;28;19926;-65
2021/09/11 06:12:47;;;;;;;;;;;23.60;57.30;;;;;;4993355;28;19973;-65
2021/09/11 06:15:15;;;;;;;;;;;23.60;57.30;;;;;;4992650;28;19926;-66
2021/09/11 06:17:42;;;;;;;;;;;23.70;57.30;;;;;;4993188;28;20378;-65
2021/09/11 06:20:09;;;;;;;;;;;23.70;57.20;;;;;;4992353;28;19949;-66
2021/09/11 06:22:37;;;;;;;;;;;23.70;57.20;;;;;;4992114;28;19926;-65
2021/09/11 06:25:04;;;;;;;;;;;23.70;57.20;;;;;;4993309;28;19925;-66
2021/09/11 06:27:31;;;;;;;;;;;23.70;57.20;;;;;;4991699;28;19925;-66
2021/09/11 06:29:58;;;;;;;;;;;23.70;57.10;;;;;;4992881;28;19926;-65
2021/09/11 06:32:25;;;;;;;;;;;23.70;57.10;;;;;;4992982;28;20392;-66
2021/09/11 06:34:52;;;;;;;;;;;23.70;57.10;;;;;;4991864;28;19926;-65
2021/09/11 06:37:20;;;;;;;;;;;23.70;57.10;;;;;;4992877;28;19955;-65
2021/09/11 06:39:47;;;;;;;;;;;23.70;57.10;;;;;;4993125;28;19941;-67
2021/09/11 06:42:15;;;;;;;;;;;23.70;57.10;;;;;;4991755;28;19926;-66
2021/09/11 06:44:42;;;;;;;;;;;23.70;57.10;;;;;;4991511;28;20420;-66
2021/09/11 06:47:09;;;;;;;;;;;23.70;57.00;;;;;;4991675;28;19930;-66
2021/09/11 06:49:37;;;;;;;;;;;23.80;57.10;;;;;;4992802;28;19932;-66
2021/09/11 06:52:04;;;;;;;;;;;23.80;57.00;;;;;;5020884;28;19930;-67
2021/09/11 06:54:31;;;;;;;;;;;23.80;57.00;;;;;;5051421;28;20368;-66
2021/09/11 06:56:58;;;;;;;;;;;23.80;57.00;;;;;;4991417;28;19933;-66
2021/09/11 06:59:25;;;;;;;;;;;23.80;56.90;;;;;;4992753;28;19973;-66
2021/09/11 07:01:52;;;;;;;;;;;23.80;56.90;;;;;;4991779;28;19933;-66
2021/09/11 07:04:20;;;;;;;;;;;23.80;56.90;;;;;;4991387;28;19926;-66
2021/09/11 07:06:47;;;;;;;;;;;23.80;56.90;;;;;;4975457;28;19926;-65
2021/09/11 07:09:14;;;;;;;;;;;23.90;56.90;;;;;;4992912;28;19960;-66
2021/09/11 07:11:41;;;;;;;;;;;23.90;56.90;;;;;;4992393;28;19961;-66
2021/09/11 07:14:08;;;;;;;;;;;23.90;56.90;;;;;;4992459;28;19926;-67
2021/09/11 07:16:35;;;;;;;;;;;23.90;56.80;;;;;;4991187;28;20381;-68
2021/09/11 07:19:03;;;;;;;;;;;23.90;56.80;;;;;;4992439;28;19968;-66
2021/09/11 07:21:30;;;;;;;;;;;23.90;56.80;;;;;;4992083;28;20593;-66
2021/09/11 07:23:57;;;;;;;;;;;23.90;56.70;;;;;;4991580;28;19930;-66
2021/09/11 07:26:24;;;;;;;;;;;23.90;56.70;;;;;;4991220;28;19926;-66
2021/09/11 07:28:51;;;;;;;;;;;23.90;56.70;;;;;;4991935;28;19926;-66
2021/09/11 07:31:18;;;;;;;;;;;23.90;56.70;;;;;;4991613;28;19926;-67
2021/09/11 07:33:46;;;;;;;;;;;24.00;56.70;;;;;;4992343;28;19987;-66
2021/09/11 07:36:13;;;;;;;;;;;24.00;56.80;;;;;;4992111;28;19926;-65
2021/09/11 07:38:40;;;;;;;;;;;24.00;57.20;;;;;;4990903;28;19937;-66
2021/09/11 07:41:07;;;;;;;;;;;24.10;56.60;;;;;;4991870;28;20274;-66
2021/09/11 07:43:35;;;;;;;;;;;24.00;56.40;;;;;;4990987;28;19929;-66
2021/09/11 07:46:02;;;;;;;;;;;24.10;56.40;;;;;;4991193;28;19926;-65
2021/09/11 07:48:29;;;;;;;;;;;24.10;56.30;;;;;;4992087;28;20006;-66
2021/09/11 07:51:00;;;;;;;;;;;24.20;56.30;;;;;;4992124;28;20437;-65
2021/09/11 07:53:27;;;;;;;;;;;24.20;56.80;;;;;;5038335;28;19932;-65
2021/09/11 07:55:55;;;;;;;;;;;24.20;56.20;;;;;;4990378;28;19926;-65
2021/09/11 07:58:22;;;;;;;;;;;24.20;56.10;;;;;;4991750;28;19926;-64
2021/09/11 08:00:49;;;;;;;;;;;24.30;56.30;;;;;;4991772;28;19932;-67
2021/09/11 08:03:16;;;;;;;;;;;24.20;56.60;;;;;;4991380;28;19926;-67
2021/09/11 08:05:44;;;;;;;;;;;24.20;56.70;;;;;;4991273;28;20009;-67
2021/09/11 08:08:11;;;;;;;;;;;24.20;56.60;;;;;;4990699;28;20389;-67
2021/09/11 08:10:38;;;;;;;;;;;24.20;56.60;;;;;;4991670;28;19926;-67
2021/09/11 08:13:05;;;;;;;;;;;24.30;56.70;;;;;;4990515;28;19972;-67
2021/09/11 08:15:32;;;;;;;;;;;24.30;56.70;;;;;;4991913;28;19926;-67
2021/09/11 08:18:01;;;;;;;;;;;24.30;56.60;;;;;;4990090;28;19930;-67
2021/09/11 08:20:32;;;;;;;;;;;24.30;56.60;;;;;;4990445;28;20289;-67
2021/09/11 08:23:03;;;;;;;;;;;24.40;56.70;;;;;;4991412;28;19955;-67
2021/09/11 08:25:31;;;;;;;;;;;24.40;56.60;;;;;;4991185;28;19941;-67
2021/09/11 08:27:58;;;;;;;;;;;24.40;56.60;;;;;;4991020;28;19925;-67
2021/09/11 08:30:25;;;;;;;;;;;24.40;56.60;;;;;;4991439;28;19925;-68
2021/09/11 08:32:52;;;;;;;;;;;24.40;56.60;;;;;;4990018;28;20385;-68
2021/09/11 08:35:20;;;;;;;;;;;24.40;56.70;;;;;;4993388;28;19926;-67
2021/09/11 08:37:47;;;;;;;;;;;24.40;56.70;;;;;;4994291;28;19933;-67
2021/09/11 08:40:14;;;;;;;;;;;24.40;56.70;;;;;;4991168;28;19925;-67
2021/09/11 08:42:42;;;;;;;;;;;24.40;56.70;;;;;;4991386;28;19926;-68
2021/09/11 08:45:13;;;;;;;;;;;24.50;56.80;;;;;;4990990;28;19991;-68
2021/09/11 08:47:41;;;;;;;;;;;24.50;56.80;;;;;;4990543;28;19930;-68
2021/09/11 08:50:09;;;;;;;;;;;24.50;56.80;;;;;;4990021;28;19925;-67
2021/09/11 08:52:36;;;;;;;;;;;24.50;56.80;;;;;;4996406;28;19926;-68
2021/09/11 08:55:03;;;;;;;;;;;24.50;56.80;;;;;;4989866;28;19926;-67
2021/09/11 08:57:33;;;;;;;;;;;24.50;56.80;;;;;;4989829;28;19964;-68
2021/09/11 09:00:03;;;;;;;;;;;24.60;57.00;;;;;;4990771;28;20377;-67
2021/09/11 09:02:30;;;;;;;;;;;24.60;57.00;;;;;;4990940;28;19929;-68
2021/09/11 09:04:59;;;;;;;;;;;24.60;57.00;;;;;;4990946;28;19972;-67
2021/09/11 09:07:33;;;;;;;;;;;24.60;57.00;;;;;;4989658;28;20016;-67
2021/09/11 09:10:11;;;;;;;;;;;24.60;57.00;;;;;;4989554;28;19932;-67
2021/09/11 09:12:40;;;;;;;;;;;24.60;57.20;;;;;;4990924;28;20288;-68
2021/09/11 09:15:11;;;;;;;;;;;24.60;57.40;;;;;;4990294;28;19926;-67
2021/09/11 09:17:43;;;;;;;;;;;24.60;57.20;;;;;;4990037;28;19933;-68
2021/09/11 09:20:31;;;;;;;;;;;24.60;57.40;;;;;;4973303;28;19994;-68
2021/09/11 09:22:58;;;;;;;;;;;24.60;57.40;;;;;;4976123;28;19926;-67
2021/09/11 09:25:29;;;;;;;;;;;24.60;57.60;;;;;;4990682;28;19926;-67
2021/09/11 09:28:06;;;;;;;;;;;24.50;57.60;;;;;;4990591;28;19934;-67
2021/09/11 09:30:43;;;;;;;;;;;24.50;57.80;;;;;;4989327;28;19942;-68
2021/09/11 09:33:20;;;;;;;;;;;24.50;57.90;;;;;;4990699;28;19926;-68
2021/09/11 09:35:48;;;;;;;;;;;24.50;58.00;;;;;;4989635;28;19934;-69
2021/09/11 09:38:16;;;;;;;;;;;24.50;57.90;;;;;;4990165;28;20295;-68
2021/09/11 09:40:47;;;;;;;;;;;24.50;58.00;;;;;;4990580;28;19926;-68
2021/09/11 09:43:31;;;;;;;;;;;24.50;58.00;;;;;;4978358;28;19983;-68
2021/09/11 09:46:05;;;;;;;;;;;24.50;58.00;;;;;;4974930;28;19940;-67
2021/09/11 09:48:36;;;;;;;;;;;24.50;57.90;;;;;;4990375;28;19973;-67
2021/09/11 09:51:23;;;;;;;;;;;24.50;57.90;;;;;;4990092;28;19926;-68
2021/09/11 09:53:51;;;;;;;;;;;24.50;57.90;;;;;;4973073;28;20012;-68
2021/09/11 09:56:18;;;;;;;;;;;24.50;57.90;;;;;;4988739;28;19926;-65
2021/09/11 09:58:45;;;;;;;;;;;24.60;57.90;;;;;;4989942;28;20434;-64
2021/09/11 10:01:14;;;;;;;;;;;24.60;58.20;;;;;;4990443;28;19933;-68
2021/09/11 10:03:42;;;;;;;;;;;24.60;58.10;;;;;;4989484;28;19963;-67
2021/09/11 10:06:25;;;;;;;;;;;24.60;58.20;;;;;;4988962;28;19925;-67
2021/09/11 10:08:54;;;;;;;;;;;24.60;58.10;;;;;;4972886;28;19971;-67
2021/09/11 10:11:31;;;;;;;;;;;24.70;58.00;;;;;;4989319;28;20398;-67
2021/09/11 10:14:03;;;;;;;;;;;24.70;57.80;;;;;;4971859;28;19934;-67
2021/09/11 10:16:34;;;;;;;;;;;24.70;57.80;;;;;;4989931;28;19929;-66
2021/09/11 10:19:20;;;;;;;;;;;24.70;57.80;;;;;;4989442;28;19937;-66
2021/09/11 10:21:48;;;;;;;;;;;24.70;57.80;;;;;;4974059;28;19926;-66
2021/09/11 10:24:21;;;;;;;;;;;24.60;57.70;;;;;;4972863;28;19926;-66
2021/09/11 10:26:51;;;;;;;;;;;24.60;57.80;;;;;;4989384;28;20381;-66
2021/09/11 10:29:37;;;;;;;;;;;24.60;57.80;;;;;;4992490;28;19955;-67
2021/09/11 10:32:07;;;;;;;;;;;24.60;57.80;;;;;;4977593;28;20361;-66
2021/09/11 10:34:53;;;;;;;;;;;24.60;57.80;;;;;;4976432;28;19930;-66
2021/09/11 10:37:27;;;;;;;;;;;24.60;58.00;;;;;;4976869;28;19927;-67
2021/09/11 10:40:14;;;;;;;;;;;24.60;58.10;;;;;;4991959;28;19926;-66
2021/09/11 10:43:06;;;;;;;;;;;24.50;58.00;;;;;;4992912;28;19926;-66
2021/09/11 10:45:51;;;;;;;;;;;24.50;58.00;;;;;;5001841;28;19925;-66
2021/09/11 10:48:39;;;;;;;;;;;24.50;58.00;;;;;;4992828;28;20005;-66
2021/09/11 10:51:24;;;;;;;;;;;24.50;58.10;;;;;;4993118;28;20296;-66
2021/09/11 10:54:12;;;;;;;;;;;24.50;58.10;;;;;;4992906;28;19930;-66
2021/09/11 10:56:43;;;;;;;;;;;24.50;58.00;;;;;;4992985;28;19948;-66
2021/09/11 10:59:14;;;;;;;;;;;24.50;58.00;;;;;;4991607;28;19961;-66
2021/09/11 11:01:55;;;;;;;;;;;24.50;58.00;;;;;;4992606;28;19930;-66
2021/09/11 11:04:26;;;;;;;;;;;24.50;58.10;;;;;;4991640;28;20338;-66
2021/09/11 11:06:54;;;;;;;;;;;24.50;58.10;;;;;;4991521;28;19933;-67
2021/09/11 11:09:22;;;;;;;;;;;24.50;58.20;;;;;;4991666;28;20301;-67
2021/09/11 11:11:54;;;;;;;;;;;24.40;58.10;;;;;;4992342;28;19933;-68
2021/09/11 11:14:21;;;;;;;;;;;24.40;58.20;;;;;;4992491;28;20289;-67
2021/09/11 11:16:50;;;;;;;;;;;24.40;58.20;;;;;;4991660;28;19926;-66
2021/09/11 11:19:21;;;;;;;;;;;24.40;58.20;;;;;;4992122;28;19926;-67
2021/09/11 11:21:56;;;;;;;;;;;24.40;58.20;;;;;;4991676;28;19933;-67
2021/09/11 11:24:24;;;;;;;;;;;24.40;58.20;;;;;;4990971;28;19926;-67
2021/09/11 11:26:51;;;;;;;;;;;24.40;58.20;;;;;;4992001;28;19943;-67
2021/09/11 11:29:20;;;;;;;;;;;24.40;58.20;;;;;;4991622;28;19933;-67
2021/09/11 11:31:48;;;;;;;;;;;24.40;58.30;;;;;;4991082;28;20401;-67
2021/09/11 11:34:15;;;;;;;;;;;24.40;58.30;;;;;;4992109;28;19925;-67
2021/09/11 11:36:46;;;;;;;;;;;24.40;58.40;;;;;;4991910;28;19930;-67
2021/09/11 11:39:23;;;;;;;;;;;24.40;58.40;;;;;;4991144;28;19925;-67
2021/09/11 11:41:58;;;;;;;;;;;24.40;58.50;;;;;;4990909;28;19975;-67
2021/09/11 11:44:25;;;;;;;;;;;24.40;58.50;;;;;;4990676;28;19932;-66
2021/09/11 11:47:04;;;;;;;;;;;24.40;58.50;;;;;;4992183;28;19926;-67
2021/09/11 11:49:36;;;;;;;;;;;24.40;58.60;;;;;;4974566;28;20424;-67
2021/09/11 11:52:04;;;;;;;;;;;24.40;58.50;;;;;;4996969;28;19925;-67
2021/09/11 11:54:32;;;;;;;;;;;24.40;58.50;;;;;;4991500;28;19930;-67
2021/09/11 11:57:11;;;;;;;;;;;24.40;58.50;;;;;;4990701;28;19934;-67
2021/09/11 11:59:39;;;;;;;;;;;24.40;58.40;;;;;;4991753;28;20403;-67
2021/09/11 12:02:19;;;;;;;;;;;24.40;58.40;;;;;;4991722;28;19934;-67
2021/09/11 12:04:48;;;;;;;;;;;24.50;58.40;;;;;;4990801;28;19926;-67
2021/09/11 12:07:26;;;;;;;;;;;24.50;58.30;;;;;;4990692;28;19940;-67
2021/09/11 12:09:53;;;;;;;;;;;24.50;58.40;;;;;;4990734;28;20005;-67
2021/09/11 12:12:20;;;;;;;;;;;24.50;58.30;;;;;;4991393;28;19933;-68
2021/09/11 12:14:48;;;;;;;;;;;24.50;58.20;;;;;;4991358;28;19933;-67
2021/09/11 12:17:15;;;;;;;;;;;24.50;58.20;;;;;;4990279;28;20003;-67
2021/09/11 12:19:43;;;;;;;;;;;24.50;58.20;;;;;;4990804;28;19933;-66
2021/09/11 12:22:20;;;;;;;;;;;24.50;58.20;;;;;;4991497;28;20014;-66
2021/09/11 12:24:58;;;;;;;;;;;24.50;58.20;;;;;;4990443;28;19970;-67
2021/09/11 12:27:27;;;;;;;;;;;24.50;58.20;;;;;;4991038;28;19926;-66
2021/09/11 12:30:05;;;;;;;;;;;24.50;58.10;;;;;;4991271;28;20451;-66
2021/09/11 12:32:32;;;;;;;;;;;24.50;58.10;;;;;;4989840;28;19930;-66
2021/09/11 12:35:08;;;;;;;;;;;24.50;58.00;;;;;;4991360;28;19930;-66
2021/09/11 12:37:52;;;;;;;;;;;24.50;58.10;;;;;;4990178;28;19926;-66
2021/09/11 12:40:19;;;;;;;;;;;24.50;58.10;;;;;;4973430;28;19940;-66
2021/09/11 12:42:47;;;;;;;;;;;24.50;58.20;;;;;;4991107;28;19971;-66
2021/09/11 12:45:14;;;;;;;;;;;24.50;58.20;;;;;;4990879;28;19972;-66
2021/09/11 12:47:42;;;;;;;;;;;24.50;58.20;;;;;;4989829;28;19946;-68
2021/09/11 12:50:09;;;;;;;;;;;24.50;58.20;;;;;;4989866;28;19926;-66
2021/09/11 12:52:36;;;;;;;;;;;24.50;58.20;;;;;;5040780;28;19947;-66
2021/09/11 12:55:03;;;;;;;;;;;24.60;58.20;;;;;;4997441;28;19933;-66
2021/09/11 12:57:30;;;;;;;;;;;24.60;58.80;;;;;;4990955;28;19929;-66
2021/09/11 12:59:57;;;;;;;;;;;24.60;58.20;;;;;;4989724;28;19926;-66
2021/09/11 13:02:24;;;;;;;;;;;24.50;58.10;;;;;;4991051;28;19933;-67
2021/09/11 13:04:53;;;;;;;;;;;24.50;58.10;;;;;;4991069;28;19952;-66
2021/09/11 13:07:21;;;;;;;;;;;24.50;58.10;;;;;;4990846;28;20036;-67
2021/09/11 13:09:48;;;;;;;;;;;24.50;58.20;;;;;;4990864;28;19926;-66
2021/09/11 13:12:17;;;;;;;;;;;24.50;58.20;;;;;;4990600;28;19933;-66
2021/09/11 13:14:45;;;;;;;;;;;24.50;58.20;;;;;;4989411;28;19925;-67
2021/09/11 13:17:12;;;;;;;;;;;24.50;58.20;;;;;;4998909;28;19937;-67
2021/09/11 13:19:39;;;;;;;;;;;24.40;58.20;;;;;;4990957;28;20025;-67
2021/09/11 13:22:07;;;;;;;;;;;24.40;58.20;;;;;;4990805;28;19933;-66
2021/09/11 13:24:34;;;;;;;;;;;24.40;58.20;;;;;;4989402;28;20400;-67
2021/09/11 13:27:02;;;;;;;;;;;24.40;58.20;;;;;;4990275;28;20381;-67
2021/09/11 13:29:30;;;;;;;;;;;24.40;58.20;;;;;;4989310;28;19926;-68
2021/09/11 13:31:57;;;;;;;;;;;24.50;58.20;;;;;;4990450;28;19926;-67
2021/09/11 13:34:30;;;;;;;;;;;24.50;58.20;;;;;;4989486;28;20327;-67
2021/09/11 13:36:57;;;;;;;;;;;24.50;58.20;;;;;;4990188;28;19940;-67
2021/09/11 13:39:24;;;;;;;;;;;24.40;58.20;;;;;;4990620;28;19926;-67
2021/09/11 13:41:51;;;;;;;;;;;24.40;58.20;;;;;;4990419;28;19930;-67
2021/09/11 13:44:23;;;;;;;;;;;24.40;58.20;;;;;;4973452;28;19933;-66
2021/09/11 13:46:59;;;;;;;;;;;24.40;58.20;;;;;;4990257;28;19948;-66
2021/09/11 13:49:26;;;;;;;;;;;24.40;58.30;;;;;;4990445;28;19925;-67
2021/09/11 13:51:55;;;;;;;;;;;24.40;58.30;;;;;;5008994;28;19947;-67
2021/09/11 13:54:22;;;;;;;;;;;24.40;58.30;;;;;;4990456;28;19937;-67
2021/09/11 13:56:49;;;;;;;;;;;24.40;58.30;;;;;;4989993;28;19926;-67
2021/09/11 13:59:16;;;;;;;;;;;24.40;58.30;;;;;;4990293;28;19930;-67
2021/09/11 14:01:43;;;;;;;;;;;24.40;58.40;;;;;;4989165;28;20317;-67
2021/09/11 14:04:11;;;;;;;;;;;24.40;58.40;;;;;;4993510;28;19926;-68
2021/09/11 14:06:38;;;;;;;;;;;24.40;58.40;;;;;;4993538;28;20301;-67
2021/09/11 14:09:06;;;;;;;;;;;24.40;58.40;;;;;;4993839;28;19926;-67
2021/09/11 14:11:33;;;;;;;;;;;24.40;58.50;;;;;;4993297;28;19933;-67
2021/09/11 14:14:00;;;;;;;;;;;24.40;58.40;;;;;;4993584;28;20266;-67
2021/09/11 14:16:28;;;;;;;;;;;24.40;58.50;;;;;;4993324;28;19926;-67
2021/09/11 14:18:55;;;;;;;;;;;24.40;58.50;;;;;;4993336;28;20305;-67
2021/09/11 14:21:23;;;;;;;;;;;24.40;58.50;;;;;;4993279;28;19926;-69
2021/09/11 14:23:50;;;;;;;;;;;24.40;58.50;;;;;;4992446;28;19926;-67
2021/09/11 14:26:17;;;;;;;;;;;24.40;58.50;;;;;;4993182;28;19926;-68